This is the latest recevied weather packets stored in our database for station/object KC1DMA. If no packets are shown the sender has not sent any weather packets the latest 10 day(s).
| Time | Temp. | Humidity | Pressure | Rain* | Wind** | Luminosity | Snow |
|---|---|---|---|---|---|---|---|
| 1777822436 | 9.44° C | 51% | 1010.7 hPa | - | - | 343 W/m² | - |
| 1777822134 | 9.44° C | 50% | 1010.5 hPa | - | - | 330 W/m² | - |
| 1777821831 | 9.44° C | 48% | 1010.6 hPa | - | - | 235 W/m² | - |
| 1777821528 | 8.89° C | 49% | 1010.7 hPa | - | - | 303 W/m² | - |
| 1777821226 | 9.44° C | 49% | 1010.6 hPa | - | - | 222 W/m² | - |
| 1777820923 | 9.44° C | 49% | 1010.6 hPa | - | - | 280 W/m² | - |
| 1777820619 | 9.44° C | 49% | 1010.4 hPa | - | - | 302 W/m² | - |
| 1777820316 | 10° C | 49% | 1010.8 hPa | - | - | 393 W/m² | - |
| 1777820014 | 9.44° C | 49% | 1010.3 hPa | - | - | 417 W/m² | - |
| 1777819710 | 10° C | 54% | 1010.6 hPa | - | - | 883 W/m² | - |
| 1777819409 | 9.44° C | 53% | 1010.6 hPa | - | - | 819 W/m² | - |
| 1777819105 | 8.89° C | 54% | 1010.8 hPa | - | - | 790 W/m² | - |
| 1777818802 | 8.89° C | 55% | 1010.7 hPa | - | - | 709 W/m² | - |
| 1777818498 | 8.89° C | 54% | 1010.8 hPa | - | - | 127 W/m² | - |
| 1777818195 | 8.89° C | 56% | 1010.9 hPa | - | - | 824 W/m² | - |
| 1777817892 | 8.89° C | 56% | 1010.8 hPa | - | - | 782 W/m² | - |
| 1777817589 | 8.33° C | 56% | 1010.8 hPa | - | - | 500 W/m² | - |
| 1777817286 | 8.89° C | 56% | 1011 hPa | - | - | 717 W/m² | - |
| 1777816983 | 8.89° C | 56% | 1010.9 hPa | - | - | 691 W/m² | - |
| 1777816679 | 8.33° C | 59% | 1011.2 hPa | - | - | 648 W/m² | - |
| 1777816376 | 7.78° C | 60% | 1010.8 hPa | - | - | 615 W/m² | - |
| 1777816074 | 8.33° C | 60% | 1011 hPa | - | - | 614 W/m² | - |
| 1777815771 | 8.33° C | 61% | 1010.9 hPa | - | - | 643 W/m² | - |
| 1777815469 | 7.78° C | 61% | 1010.9 hPa | - | - | 279 W/m² | - |
| 1777815166 | 7.22° C | 62% | 1011 hPa | - | - | 211 W/m² | - |
* Rain since midnight (hover to see other rain measurements)
** Current wind speed in m/s (hover to see current wind gust speed)